Ruby, NY (12475)

10:03 AM EDT on September 04, 2015 (GMT -0400)
Saugerties | | Change Station
CLOSE
Current Station
Personal Weather Station
Location: Saugerties, NY
Elevation: 136 ft
Nearby Weather Stations

Elev 136 ft 42.04 °N, 73.95 °W | Updated 9 minutes ago

Partly Cloudy
Partly Cloudy
73.4 °F
Feels Like 75 °F
N
2.0
Wind Variable Wind from East
Gusts 2.0 mph

Today
High -- | Low -- °F
--% Chance of Precip.
Yesterday
High -- | Low -- °F
Precip. -- in
6:24 AM 7:25 PM
Waning Gibbous, 59% visible
Pressure 30.08 in
Visibility 10.0 miles
Clouds Few 2500 ft
Mostly Cloudy 4800 ft
Mostly Cloudy 7000 ft
Heat Index 75 °F
Dew Point 63 °F
Humidity 71%
Rainfall 0.00 in
Snow Depth Not available.
UV 2 out of 12
Pollen 8.80 out of 12
Air Quality Not available.
Flu Activity Not available.
METAR KPOU 041353Z AUTO 36006KT 10SM FEW025 BKN048 BKN070 25/17 A3009 RMK AO2 SLP185 T02500167
Pressure 30.08 in
Visibility 10.0 miles
Clouds Few 2500 ft
Mostly Cloudy 4800 ft
Mostly Cloudy 7000 ft
Heat Index 75 °F
Dew Point 63 °F
Humidity 71%
Rainfall 0.00 in
Snow Depth Not available.
UV 2 out of 12
Pollen 8.80 out of 12
Air Quality Not available.
Flu Activity Not available.
METAR KPOU 041353Z AUTO 36006KT 10SM FEW025 BKN048 BKN070 25/17 A3009 RMK AO2 SLP185 T02500167

10-Day Weather Forecast

×

Almanac

Astronomy

Sep. 04, 2015 Rise Set
Actual Time
Civil Twilight
Nautical Twilight
Astronomical Twilight
Moon
Length of Visible Light
Length of Day
Tomorrow will be .
, % of the Moon is Illuminated

Today's Extremes

State Highs State Lows

Community

WunderPhotos

Upload Photos

1,852,182 photos uploaded!

WunderBlogs® & News

Nearby

Air Quality

  Air Quality AQ Index Pollutant
Not available.

Snow Depth

Station Depth Elevation

Earthquake Activity

City Distance Mag. Time & Date
Minimum magnitude displayed is 2.5.

Coastal Water Temperatures

Place Temperature

Stations

Nearby Weather Stations

Station Location Temp. Windchill Dew Point Humidity Wind Precip. Elev Updated Type